createdAt,value
2018-07-17T00:00:04.753Z,4.50
2018-07-17T00:01:04.737Z,4.70
2018-07-17T00:02:04.781Z,4.50
2018-07-17T00:03:04.714Z,4.50
2018-07-17T00:04:04.725Z,4.80
2018-07-17T00:05:04.694Z,4.10
2018-07-17T00:06:04.682Z,4.90
2018-07-17T00:07:04.661Z,4.90
2018-07-17T00:08:04.684Z,4.90
2018-07-17T00:09:04.638Z,4.90
2018-07-17T00:10:04.658Z,4.70
2018-07-17T00:11:05.293Z,5.10
2018-07-17T00:12:04.607Z,4.40
2018-07-17T00:13:04.602Z,4.60
2018-07-17T00:14:04.598Z,4.70
2018-07-17T00:15:04.573Z,4.70
2018-07-17T00:16:04.579Z,4.70
2018-07-17T00:17:04.555Z,5.10
2018-07-17T00:18:04.543Z,4.70
2018-07-17T00:19:05.288Z,4.80
2018-07-17T00:20:04.533Z,5.10
2018-07-17T00:21:04.513Z,5.10
2018-07-17T00:22:04.496Z,5.20
2018-07-17T00:23:04.483Z,5.20
2018-07-17T00:24:04.470Z,5.10
2018-07-17T00:25:04.460Z,5.40
2018-07-17T00:26:04.475Z,5.10
2018-07-17T00:27:05.289Z,4.90
2018-07-17T00:28:04.427Z,5.10
2018-07-17T00:29:04.414Z,5.30
2018-07-17T00:30:04.403Z,4.90
2018-07-17T00:31:04.421Z,5.20
2018-07-17T00:32:04.396Z,5.00
2018-07-17T00:33:04.366Z,5.30
2018-07-17T00:34:04.367Z,5.20
2018-07-17T00:35:04.348Z,5.40
2018-07-17T00:36:04.336Z,5.50
2018-07-17T00:37:04.350Z,5.70
2018-07-17T00:38:04.330Z,5.20
2018-07-17T00:39:04.295Z,4.80
2018-07-17T00:40:04.286Z,5.20
2018-07-17T00:41:04.318Z,5.00
2018-07-17T00:42:04.266Z,5.20
2018-07-17T00:43:04.271Z,5.00
2018-07-17T00:44:04.258Z,5.10
2018-07-17T00:45:04.234Z,5.10
2018-07-17T00:46:04.224Z,5.20
2018-07-17T00:47:04.216Z,5.20
2018-07-17T00:48:04.233Z,5.10
2018-07-17T00:49:04.186Z,5.10
2018-07-17T00:50:04.192Z,5.50
2018-07-17T00:51:04.166Z,5.30
2018-07-17T00:52:04.153Z,5.40
2018-07-17T00:53:04.138Z,5.30
2018-07-17T00:54:04.139Z,5.50
2018-07-17T00:55:04.112Z,4.90
2018-07-17T00:56:04.127Z,5.00
2018-07-17T00:57:04.092Z,5.10
2018-07-17T00:58:04.088Z,5.10
2018-07-17T00:59:04.365Z,4.90
2018-07-17T01:00:04.064Z,5.20
2018-07-17T01:01:04.818Z,4.90
2018-07-17T01:02:04.086Z,5.10
2018-07-17T01:03:04.028Z,5.30
2018-07-17T01:04:04.020Z,5.40
2018-07-17T01:05:04.021Z,5.00
2018-07-17T01:06:03.996Z,4.70
2018-07-17T01:07:04.015Z,5.20
2018-07-17T01:08:03.975Z,5.10
2018-07-17T01:09:03.980Z,4.90
2018-07-17T01:10:03.962Z,5.30
2018-07-17T01:11:03.935Z,4.90
2018-07-17T01:12:03.924Z,4.90
2018-07-17T01:13:04.753Z,4.90
2018-07-17T01:14:03.919Z,5.20
2018-07-17T01:15:03.914Z,5.20
2018-07-17T01:16:03.884Z,5.10
2018-07-17T01:17:03.870Z,5.80
2018-07-17T01:18:03.859Z,5.50
2018-07-17T01:19:03.849Z,5.10
2018-07-17T01:20:03.844Z,5.60
2018-07-17T01:21:03.848Z,5.20
2018-07-17T01:22:03.816Z,5.40
2018-07-17T01:23:03.800Z,5.40
2018-07-17T01:24:03.784Z,5.30
2018-07-17T01:25:03.775Z,5.20
2018-07-17T01:26:03.804Z,5.80
2018-07-17T01:27:03.758Z,6.10
2018-07-17T01:28:03.750Z,5.70
2018-07-17T01:29:03.735Z,5.40
2018-07-17T01:30:03.715Z,5.70
2018-07-17T01:31:03.707Z,5.70
2018-07-17T01:32:03.714Z,5.60
2018-07-17T01:33:03.684Z,5.50
2018-07-17T01:34:03.678Z,5.60
2018-07-17T01:35:03.663Z,5.70
2018-07-17T01:36:03.657Z,5.00
2018-07-17T01:37:03.667Z,5.10
2018-07-17T01:38:03.663Z,5.30
2018-07-17T01:39:03.611Z,5.60
2018-07-17T01:40:03.611Z,5.30
2018-07-17T01:41:03.601Z,5.30
2018-07-17T01:42:04.759Z,5.60
2018-07-17T01:43:03.631Z,5.60
2018-07-17T01:44:03.555Z,5.60
2018-07-17T01:45:03.547Z,5.70
2018-07-17T01:46:03.540Z,5.80
2018-07-17T01:47:03.527Z,5.30
2018-07-17T01:48:03.534Z,5.50
2018-07-17T01:49:03.524Z,5.10
2018-07-17T01:50:03.489Z,5.40
2018-07-17T01:51:03.482Z,5.40
2018-07-17T01:52:03.471Z,5.30
2018-07-17T01:53:03.460Z,5.90
2018-07-17T01:54:03.456Z,5.30
2018-07-17T01:55:03.456Z,5.30
2018-07-17T01:56:03.420Z,5.20
2018-07-17T01:57:03.413Z,5.00
2018-07-17T01:58:03.403Z,5.50
2018-07-17T01:59:03.411Z,5.40
2018-07-17T02:00:03.381Z,5.60
2018-07-17T02:01:03.391Z,5.50
2018-07-17T02:02:03.359Z,5.80
2018-07-17T02:03:03.348Z,5.90
2018-07-17T02:04:03.331Z,5.60
2018-07-17T02:05:03.330Z,5.40
2018-07-17T02:06:03.311Z,5.50
2018-07-17T02:07:03.319Z,5.40
2018-07-17T02:08:03.284Z,5.70
2018-07-17T02:09:03.275Z,5.30
2018-07-17T02:10:03.284Z,5.50
2018-07-17T02:11:03.251Z,5.50
2018-07-17T02:12:03.237Z,5.50
2018-07-17T02:13:03.238Z,5.80
2018-07-17T02:14:03.217Z,5.50
2018-07-17T02:15:03.206Z,6.00
2018-07-17T02:16:03.227Z,5.60
2018-07-17T02:17:03.185Z,6.00
2018-07-17T02:18:03.168Z,5.60
2018-07-17T02:19:03.177Z,5.40
2018-07-17T02:20:03.151Z,5.60
2018-07-17T02:21:03.136Z,5.50
2018-07-17T02:22:03.143Z,5.80
2018-07-17T02:23:03.115Z,5.90
2018-07-17T02:24:03.179Z,5.60
2018-07-17T02:25:03.093Z,5.60
2018-07-17T02:26:03.158Z,5.50
2018-07-17T02:27:03.082Z,5.50
2018-07-17T02:28:03.064Z,5.80
2018-07-17T02:29:03.056Z,5.60
2018-07-17T02:30:03.059Z,5.70
2018-07-17T02:31:03.025Z,5.50
2018-07-17T02:32:03.047Z,6.10
2018-07-17T02:33:02.997Z,5.50
2018-07-17T02:34:02.991Z,5.50
2018-07-17T02:35:02.980Z,5.60
2018-07-17T02:36:02.996Z,6.30
2018-07-17T02:37:02.958Z,5.90
2018-07-17T02:38:02.958Z,5.80
2018-07-17T02:39:02.936Z,6.00
2018-07-17T02:40:02.922Z,5.80
2018-07-17T02:41:02.909Z,5.60
2018-07-17T02:42:02.924Z,6.00
2018-07-17T02:43:02.925Z,6.10
2018-07-17T02:44:02.880Z,5.50
2018-07-17T02:45:02.863Z,5.60
2018-07-17T02:46:02.856Z,6.30
2018-07-17T02:47:02.844Z,5.60
2018-07-17T02:48:02.853Z,6.00
2018-07-17T02:49:02.838Z,6.20
2018-07-17T02:50:02.813Z,5.90
2018-07-17T02:51:02.807Z,6.40
2018-07-17T02:52:02.782Z,5.80
2018-07-17T02:53:02.773Z,6.20
2018-07-17T02:54:02.802Z,5.90
2018-07-17T02:55:02.747Z,6.20
2018-07-17T02:56:02.740Z,6.30
2018-07-17T02:57:02.729Z,6.40
2018-07-17T02:58:02.726Z,6.90
2018-07-17T02:59:02.700Z,6.10
2018-07-17T03:00:02.732Z,6.40
2018-07-17T03:01:02.685Z,6.20
2018-07-17T03:02:02.678Z,6.10
2018-07-17T03:03:02.660Z,6.10
2018-07-17T03:04:02.654Z,5.90
2018-07-17T03:05:02.664Z,6.40
2018-07-17T03:06:02.650Z,6.20
2018-07-17T03:07:02.684Z,6.10
2018-07-17T03:08:02.613Z,6.10
2018-07-17T03:09:02.595Z,5.70
2018-07-17T03:10:02.586Z,6.20
2018-07-17T03:11:02.589Z,5.80
2018-07-17T03:12:02.578Z,6.20
2018-07-17T03:13:02.547Z,5.50
2018-07-17T03:14:02.536Z,6.20
2018-07-17T03:15:02.526Z,6.20
2018-07-17T03:16:02.539Z,6.20
2018-07-17T03:17:02.501Z,6.00
2018-07-17T03:18:02.506Z,5.90
2018-07-17T03:19:02.482Z,6.50
2018-07-17T03:20:02.469Z,5.60
2018-07-17T03:21:02.463Z,6.80
2018-07-17T03:22:02.456Z,6.10
2018-07-17T03:23:02.438Z,6.20
2018-07-17T03:24:02.440Z,5.90
2018-07-17T03:25:02.408Z,6.10
2018-07-17T03:26:02.400Z,6.00
2018-07-17T03:27:02.404Z,6.80
2018-07-17T03:28:02.370Z,6.50
2018-07-17T03:29:02.362Z,6.00
2018-07-17T03:30:02.370Z,6.10
2018-07-17T03:31:02.343Z,6.00
2018-07-17T03:32:02.329Z,6.60
2018-07-17T03:33:02.330Z,6.30
2018-07-17T03:34:02.305Z,6.70
2018-07-17T03:35:02.298Z,6.10
2018-07-17T03:36:02.303Z,6.70
2018-07-17T03:37:02.271Z,6.80
2018-07-17T03:38:02.285Z,6.10
2018-07-17T03:39:02.251Z,6.60
2018-07-17T03:40:02.240Z,6.70
2018-07-17T03:41:02.237Z,5.90
2018-07-17T03:42:02.226Z,6.20
2018-07-17T03:43:02.208Z,6.00
2018-07-17T03:44:02.208Z,6.20
2018-07-17T03:45:02.181Z,6.30
2018-07-17T03:46:02.821Z,6.40
2018-07-17T03:47:02.164Z,6.30
2018-07-17T03:48:02.160Z,6.40
2018-07-17T03:49:02.177Z,6.10
2018-07-17T03:50:02.126Z,7.00
2018-07-17T03:51:02.113Z,6.70
2018-07-17T03:52:02.101Z,6.20
2018-07-17T03:53:02.093Z,6.90
2018-07-17T03:54:02.092Z,6.90
2018-07-17T03:55:02.094Z,6.70
2018-07-17T03:56:02.054Z,6.80
2018-07-17T03:57:02.050Z,6.20
2018-07-17T03:58:02.034Z,6.50
2018-07-17T03:59:02.026Z,6.30
2018-07-17T04:00:02.024Z,7.20
2018-07-17T04:01:02.013Z,6.60
2018-07-17T04:02:01.987Z,6.70
2018-07-17T04:03:01.978Z,6.50
2018-07-17T04:04:01.968Z,6.80
2018-07-17T04:05:01.956Z,7.00
2018-07-17T04:06:01.988Z,7.60
2018-07-17T04:07:01.935Z,6.80
2018-07-17T04:08:01.917Z,6.60
2018-07-17T04:09:01.916Z,6.90
2018-07-17T04:10:01.916Z,6.90
2018-07-17T04:11:01.896Z,7.00
2018-07-17T04:12:01.913Z,6.50
2018-07-17T04:13:01.866Z,6.80
2018-07-17T04:14:01.854Z,7.30
2018-07-17T04:15:01.844Z,6.40
2018-07-17T04:16:01.866Z,7.00
2018-07-17T04:17:01.820Z,7.10
2018-07-17T04:18:01.830Z,7.20
2018-07-17T04:19:01.794Z,7.30
2018-07-17T04:20:01.793Z,7.10
2018-07-17T04:21:01.778Z,7.70
2018-07-17T04:22:01.794Z,6.90
2018-07-17T04:23:01.756Z,6.80
2018-07-17T04:24:01.757Z,6.90
2018-07-17T04:25:01.724Z,6.80
2018-07-17T04:26:01.718Z,7.20
2018-07-17T04:27:01.708Z,6.90
2018-07-17T04:28:01.712Z,6.70
2018-07-17T04:29:01.681Z,7.60
2018-07-17T04:30:01.690Z,7.30
2018-07-17T04:31:23.417Z,7.40
2018-07-17T04:32:01.763Z,7.20
2018-07-17T04:33:02.034Z,7.00
2018-07-17T04:34:01.685Z,7.30
2018-07-17T04:35:01.639Z,7.20
2018-07-17T04:36:01.678Z,7.20
2018-07-17T04:37:01.613Z,7.50
2018-07-17T04:38:01.652Z,7.40
2018-07-17T04:39:01.868Z,7.10
2018-07-17T04:40:02.313Z,7.80
2018-07-17T04:41:01.747Z,7.10
2018-07-17T04:42:01.662Z,7.10
2018-07-17T04:43:01.778Z,6.90
2018-07-17T04:44:01.784Z,7.40
2018-07-17T04:45:01.773Z,7.70
2018-07-17T04:46:02.426Z,7.10
2018-07-17T04:47:01.569Z,7.30
2018-07-17T04:48:01.848Z,7.30
2018-07-17T04:49:01.489Z,7.00
2018-07-17T04:50:01.711Z,7.50
2018-07-17T04:51:01.572Z,7.30
2018-07-17T04:52:01.561Z,7.70
2018-07-17T04:53:01.520Z,7.80
2018-07-17T04:54:01.503Z,7.30
2018-07-17T04:55:01.633Z,7.30
2018-07-17T04:56:01.491Z,7.30
2018-07-17T04:57:01.518Z,7.50
2018-07-17T04:58:01.461Z,7.20
2018-07-17T04:59:02.349Z,6.80
2018-07-17T05:00:01.442Z,7.30
2018-07-17T05:01:01.576Z,7.10
2018-07-17T05:02:01.519Z,7.10
2018-07-17T05:03:01.400Z,6.60
2018-07-17T05:04:01.415Z,6.30
2018-07-17T05:05:01.391Z,7.70
2018-07-17T05:06:01.485Z,6.80
2018-07-17T05:07:01.366Z,6.80
2018-07-17T05:08:01.360Z,6.90
2018-07-17T05:09:01.244Z,6.20
2018-07-17T05:10:01.215Z,6.80
2018-07-17T05:11:01.208Z,6.40
2018-07-17T05:12:01.218Z,6.00
2018-07-17T05:13:01.273Z,6.60
2018-07-17T05:14:01.168Z,6.00
2018-07-17T05:15:01.295Z,6.20
2018-07-17T05:16:01.159Z,6.10
2018-07-17T05:17:01.166Z,6.30
2018-07-17T05:18:01.129Z,6.30
2018-07-17T05:19:01.113Z,6.10
2018-07-17T05:20:01.113Z,6.30
2018-07-17T05:21:01.117Z,5.90
2018-07-17T05:22:01.119Z,6.10
2018-07-17T05:23:01.139Z,6.20
2018-07-17T05:24:01.121Z,6.10
2018-07-17T05:25:01.183Z,5.90
2018-07-17T05:26:01.323Z,5.80
2018-07-17T05:27:01.029Z,6.30
2018-07-17T05:28:01.281Z,5.70
2018-07-17T05:29:01.040Z,5.70
2018-07-17T05:30:01.040Z,5.60
2018-07-17T05:31:00.977Z,5.50
2018-07-17T05:32:01.034Z,5.90
2018-07-17T05:33:01.014Z,6.00
2018-07-17T05:34:01.455Z,5.80
2018-07-17T05:35:01.014Z,5.80
2018-07-17T05:36:00.957Z,5.40
2018-07-17T05:37:00.981Z,5.80
2018-07-17T05:38:00.950Z,5.50
2018-07-17T05:39:00.917Z,5.50
2018-07-17T05:40:01.160Z,5.40
2018-07-17T05:41:00.982Z,5.30
2018-07-17T05:42:00.875Z,5.40
2018-07-17T05:43:00.838Z,5.20
2018-07-17T05:44:00.835Z,5.20
2018-07-17T05:45:00.967Z,5.60
2018-07-17T05:46:00.850Z,5.40
2018-07-17T05:47:00.845Z,4.80
2018-07-17T05:48:00.844Z,5.40
2018-07-17T05:49:00.803Z,5.00
2018-07-17T05:50:01.029Z,5.40
2018-07-17T05:51:00.767Z,5.50
2018-07-17T05:52:00.752Z,5.30
2018-07-17T05:53:00.726Z,5.50
2018-07-17T05:54:00.728Z,5.10
2018-07-17T05:55:00.713Z,5.40
2018-07-17T05:56:00.740Z,5.30
2018-07-17T05:57:00.707Z,4.70
2018-07-17T05:58:00.712Z,5.20
2018-07-17T05:59:00.660Z,4.80
2018-07-17T06:00:00.652Z,4.80
2018-07-17T06:01:00.643Z,5.50
2018-07-17T06:02:00.632Z,5.00
2018-07-17T06:03:01.276Z,5.10
2018-07-17T06:04:00.603Z,5.40
2018-07-17T06:05:00.585Z,4.90
2018-07-17T06:06:00.582Z,5.30
2018-07-17T06:07:00.588Z,5.00
2018-07-17T06:08:00.565Z,5.30
2018-07-17T06:09:00.548Z,5.20
2018-07-17T06:10:00.540Z,4.90
2018-07-17T06:11:00.518Z,5.20
2018-07-17T06:12:00.531Z,4.40
2018-07-17T06:13:00.499Z,5.10
2018-07-17T06:14:00.530Z,9.60
2018-07-17T06:15:00.481Z,8.60
2018-07-17T06:16:00.492Z,5.10
2018-07-17T06:17:00.464Z,5.40
2018-07-17T06:18:00.500Z,4.70
2018-07-17T06:19:00.462Z,4.90
2018-07-17T06:20:00.475Z,5.40
2018-07-17T06:21:00.441Z,4.60
2018-07-17T06:22:00.452Z,5.00
2018-07-17T06:23:00.390Z,4.70
2018-07-17T06:24:00.393Z,5.00
2018-07-17T06:25:00.427Z,5.30
2018-07-17T06:26:00.353Z,5.00
2018-07-17T06:27:00.354Z,5.00
2018-07-17T06:28:00.329Z,5.00
2018-07-17T06:29:00.338Z,5.10
2018-07-17T06:30:00.338Z,5.10
2018-07-17T06:31:00.293Z,4.70
2018-07-17T06:32:00.336Z,5.00
2018-07-17T06:33:00.336Z,4.60
2018-07-17T06:34:00.303Z,4.90
2018-07-17T06:35:00.258Z,4.90
2018-07-17T06:36:00.248Z,4.40
2018-07-17T06:37:00.241Z,4.80
2018-07-17T06:38:00.221Z,4.90
2018-07-17T06:39:00.210Z,5.00
2018-07-17T06:40:00.220Z,4.60
2018-07-17T06:41:00.181Z,4.80
2018-07-17T06:42:00.181Z,5.30
2018-07-17T06:43:00.184Z,4.60
2018-07-17T06:44:00.149Z,4.30
2018-07-17T06:45:00.168Z,4.80
2018-07-17T06:46:00.129Z,4.60
2018-07-17T06:47:00.118Z,4.60
2018-07-17T06:48:00.102Z,4.80
2018-07-17T06:49:00.138Z,5.30
2018-07-17T06:50:00.078Z,4.80
2018-07-17T06:51:00.091Z,5.30
2018-07-17T06:52:00.059Z,5.00
2018-07-17T06:53:00.054Z,5.00
2018-07-17T06:54:00.045Z,4.90
2018-07-17T06:55:00.067Z,4.80
2018-07-17T06:56:00.042Z,4.70
2018-07-17T06:57:00.003Z,5.10
2018-07-17T06:58:00.011Z,4.90
2018-07-17T06:58:59.993Z,4.60
2018-07-17T06:59:59.970Z,4.70
2018-07-17T07:00:59.983Z,4.90
2018-07-17T07:01:59.977Z,4.60
2018-07-17T07:02:59.932Z,4.70
2018-07-17T07:03:59.924Z,4.60
2018-07-17T07:04:59.912Z,4.90
2018-07-17T07:05:59.899Z,4.60
2018-07-17T07:06:59.940Z,4.80
2018-07-17T07:07:59.878Z,4.50
2018-07-17T07:08:59.862Z,4.70
2018-07-17T07:09:59.859Z,4.20
2018-07-17T07:10:59.849Z,4.60
2018-07-17T07:11:59.834Z,4.40
2018-07-17T07:12:59.879Z,4.30
2018-07-17T07:13:59.803Z,4.50
2018-07-17T07:14:59.798Z,4.30
2018-07-17T07:15:59.785Z,4.50
2018-07-17T07:16:59.785Z,4.30
2018-07-17T07:17:59.770Z,4.50
2018-07-17T07:18:59.803Z,4.50
2018-07-17T07:19:59.738Z,4.60
2018-07-17T07:20:59.732Z,4.30
2018-07-17T07:21:59.716Z,4.40
2018-07-17T07:22:59.701Z,4.60
2018-07-17T07:23:59.711Z,4.30
2018-07-17T07:24:59.712Z,4.80
2018-07-17T07:25:59.672Z,4.10
2018-07-17T07:26:59.666Z,4.20
2018-07-17T07:27:59.655Z,4.30
2018-07-17T07:28:59.663Z,4.40
2018-07-17T07:29:59.628Z,4.30
2018-07-17T07:30:59.659Z,4.70
2018-07-17T07:31:59.607Z,4.50
2018-07-17T07:32:59.593Z,4.20
2018-07-17T07:33:59.581Z,4.10
2018-07-17T07:34:59.603Z,4.70
2018-07-17T07:35:59.562Z,4.30
2018-07-17T07:36:59.564Z,4.50
2018-07-17T07:37:59.539Z,4.30
2018-07-17T07:38:59.527Z,4.30
2018-07-17T07:39:59.516Z,4.60
2018-07-17T07:40:59.518Z,4.00
2018-07-17T07:41:59.490Z,4.30
2018-07-17T07:42:59.498Z,4.20
2018-07-17T07:43:59.477Z,4.60
2018-07-17T07:44:59.466Z,4.10
2018-07-17T07:45:59.475Z,4.50
2018-07-17T07:46:59.432Z,4.10
2018-07-17T07:47:59.427Z,3.90
2018-07-17T07:48:59.426Z,4.10
2018-07-17T07:49:59.399Z,4.30
2018-07-17T07:50:59.401Z,4.50
2018-07-17T07:51:59.376Z,4.40
2018-07-17T07:52:59.371Z,4.20
2018-07-17T07:53:59.355Z,4.20
2018-07-17T07:54:59.372Z,4.30
2018-07-17T07:55:59.375Z,4.40
2018-07-17T07:56:59.319Z,4.50
2018-07-17T07:57:59.321Z,4.30
2018-07-17T07:58:59.307Z,4.80
2018-07-17T07:59:59.295Z,4.30
2018-07-17T08:00:59.299Z,5.20
2018-07-17T08:01:59.296Z,5.00
2018-07-17T08:02:59.260Z,4.90
2018-07-17T08:03:59.276Z,4.90
2018-07-17T08:04:59.245Z,4.80
2018-07-17T08:05:59.228Z,4.90
2018-07-17T08:06:59.243Z,4.60
2018-07-17T08:07:59.222Z,5.00
2018-07-17T08:08:59.189Z,4.30
2018-07-17T08:09:59.188Z,4.00
2018-07-17T08:10:59.173Z,4.30
2018-07-17T08:11:59.179Z,4.70
2018-07-17T08:12:59.190Z,4.50
2018-07-17T08:13:59.138Z,4.50
2018-07-17T08:14:59.128Z,4.40
2018-07-17T08:15:59.128Z,5.00
2018-07-17T08:16:59.107Z,4.50
2018-07-17T08:17:59.124Z,4.50
2018-07-17T08:18:59.099Z,4.40
2018-07-17T08:19:59.074Z,4.30
2018-07-17T08:20:59.069Z,4.20
2018-07-17T08:21:59.057Z,4.40
2018-07-17T08:22:59.040Z,4.50
2018-07-17T08:23:59.055Z,4.40
2018-07-17T08:24:59.016Z,4.50
2018-07-17T08:25:59.015Z,4.40
2018-07-17T08:26:59.006Z,4.40
2018-07-17T08:27:58.994Z,4.40
2018-07-17T08:28:58.991Z,4.40
2018-07-17T08:29:58.987Z,4.30
2018-07-17T08:30:58.953Z,4.40
2018-07-17T08:31:58.951Z,5.20
2018-07-17T08:32:58.935Z,5.00
2018-07-17T08:33:59.810Z,4.80
2018-07-17T08:34:58.930Z,4.50
2018-07-17T08:35:58.906Z,4.30
2018-07-17T08:36:58.896Z,4.60
2018-07-17T08:37:58.887Z,4.60
2018-07-17T08:38:58.875Z,4.40
2018-07-17T08:39:58.877Z,4.50
2018-07-17T08:40:58.873Z,4.30
2018-07-17T08:41:58.846Z,4.20
2018-07-17T08:42:58.841Z,4.10
2018-07-17T08:43:58.840Z,4.40
2018-07-17T08:44:59.755Z,4.30
2018-07-17T08:45:58.809Z,5.20
2018-07-17T08:46:58.787Z,4.60
2018-07-17T08:47:58.815Z,4.40
2018-07-17T08:48:58.772Z,4.40
2018-07-17T08:49:58.787Z,4.30
2018-07-17T08:50:58.764Z,4.80
2018-07-17T08:51:58.725Z,4.60
2018-07-17T08:52:58.743Z,4.60
2018-07-17T08:53:58.710Z,4.10
2018-07-17T08:54:58.740Z,4.00
2018-07-17T08:55:58.700Z,4.00
2018-07-17T08:56:58.679Z,4.20
2018-07-17T08:57:58.681Z,4.30
2018-07-17T08:58:58.658Z,4.40
2018-07-17T08:59:58.645Z,4.40
2018-07-17T09:00:58.644Z,4.50
2018-07-17T09:01:58.628Z,4.60
2018-07-17T09:02:58.607Z,4.60
2018-07-17T09:03:58.612Z,5.00
2018-07-17T09:04:58.581Z,4.20
2018-07-17T09:05:58.603Z,4.30
2018-07-17T09:06:58.563Z,4.30
2018-07-17T09:07:58.555Z,4.00
2018-07-17T09:08:58.543Z,4.30
2018-07-17T09:09:58.556Z,4.60
2018-07-17T09:10:58.529Z,4.60
2018-07-17T09:11:58.530Z,4.30
2018-07-17T09:12:58.494Z,4.10
2018-07-17T09:13:58.478Z,4.20
2018-07-17T09:14:58.478Z,4.50
2018-07-17T09:15:58.493Z,4.50
2018-07-17T09:16:58.446Z,4.20
2018-07-17T09:17:58.443Z,4.30
2018-07-17T09:18:58.426Z,3.90
2018-07-17T09:19:58.434Z,4.00
2018-07-17T09:20:58.433Z,4.10
2018-07-17T09:21:58.390Z,4.60
2018-07-17T09:22:58.391Z,4.10
2018-07-17T09:23:58.368Z,4.40
2018-07-17T09:24:58.374Z,4.40
2018-07-17T09:25:58.369Z,4.40
2018-07-17T09:26:58.355Z,4.30
2018-07-17T09:27:58.323Z,4.40
2018-07-17T09:28:58.319Z,4.40
2018-07-17T09:29:58.325Z,4.70
2018-07-17T09:30:58.297Z,4.50
2018-07-17T09:31:58.282Z,4.80
2018-07-17T09:32:58.289Z,4.10
2018-07-17T09:33:58.259Z,4.20
2018-07-17T09:34:58.275Z,4.40
2018-07-17T09:35:58.242Z,4.60
2018-07-17T09:36:58.224Z,4.30
2018-07-17T09:37:58.328Z,4.30
2018-07-17T09:38:58.250Z,4.20
2018-07-17T09:39:58.185Z,4.30
2018-07-17T09:40:58.213Z,4.80
2018-07-17T09:41:58.164Z,4.70
2018-07-17T09:42:58.157Z,3.90
2018-07-17T09:43:58.160Z,4.30
2018-07-17T09:44:58.135Z,4.00
2018-07-17T09:45:58.145Z,4.40
2018-07-17T09:46:58.136Z,4.20
2018-07-17T09:47:58.102Z,3.90
2018-07-17T09:48:58.085Z,4.10
2018-07-17T09:49:58.087Z,4.10
2018-07-17T09:50:58.052Z,4.00
2018-07-17T09:51:58.098Z,4.10
2018-07-17T09:52:58.054Z,4.60
2018-07-17T09:53:58.023Z,4.10
2018-07-17T09:54:58.026Z,4.00
2018-07-17T09:55:58.007Z,4.10
2018-07-17T09:56:57.993Z,4.00
2018-07-17T09:57:58.011Z,4.10
2018-07-17T09:58:57.986Z,4.00
2018-07-17T09:59:57.966Z,3.50
2018-07-17T10:00:57.953Z,3.80
2018-07-17T10:01:57.940Z,3.90
2018-07-17T10:02:57.931Z,3.90
2018-07-17T10:03:57.936Z,4.10
2018-07-17T10:04:57.898Z,3.80
2018-07-17T10:05:57.888Z,3.90
2018-07-17T10:06:57.897Z,3.70
2018-07-17T10:07:57.912Z,4.10
2018-07-17T10:08:57.862Z,3.90
2018-07-17T10:09:57.865Z,3.90
2018-07-17T10:10:57.839Z,4.00
2018-07-17T10:11:57.827Z,3.60
2018-07-17T10:12:57.810Z,3.60
2018-07-17T10:13:57.824Z,3.50
2018-07-17T10:14:57.792Z,3.40
2018-07-17T10:15:57.772Z,3.40
2018-07-17T10:16:57.761Z,3.70
2018-07-17T10:17:57.771Z,3.50
2018-07-17T10:18:57.770Z,3.80
2018-07-17T10:19:57.789Z,3.70
2018-07-17T10:20:57.717Z,3.60
2018-07-17T10:21:57.701Z,3.90
2018-07-17T10:22:57.702Z,3.90
2018-07-17T10:23:57.704Z,3.70
2018-07-17T10:24:57.714Z,3.70
2018-07-17T10:25:57.661Z,3.60
2018-07-17T10:26:57.913Z,3.70
2018-07-17T10:27:57.647Z,3.40
2018-07-17T10:28:57.628Z,3.50
2018-07-17T10:29:57.650Z,3.50
2018-07-17T10:30:57.603Z,3.90
2018-07-17T10:31:57.653Z,3.80
2018-07-17T10:32:57.617Z,3.70
2018-07-17T10:33:57.573Z,3.80
2018-07-17T10:34:57.571Z,3.60
2018-07-17T10:35:57.578Z,3.80
2018-07-17T10:36:57.550Z,3.50
2018-07-17T10:37:57.541Z,3.80
2018-07-17T10:38:57.533Z,3.50
2018-07-17T10:39:57.506Z,3.50
2018-07-17T10:40:57.496Z,3.80
2018-07-17T10:41:57.511Z,3.60
2018-07-17T10:42:57.476Z,4.10
2018-07-17T10:43:57.463Z,3.40
2018-07-17T10:44:57.462Z,3.80
2018-07-17T10:45:57.471Z,3.40
2018-07-17T10:46:57.450Z,3.50
2018-07-17T10:47:57.424Z,3.60
2018-07-17T10:48:57.410Z,3.50
2018-07-17T10:49:57.403Z,3.50
2018-07-17T10:50:57.386Z,3.40
2018-07-17T10:51:57.408Z,3.50
2018-07-17T10:52:57.384Z,3.60
2018-07-17T10:53:57.346Z,3.60
2018-07-17T10:54:57.376Z,3.30
2018-07-17T10:55:57.339Z,3.90
2018-07-17T10:56:57.329Z,3.50
2018-07-17T10:57:57.351Z,3.60
2018-07-17T10:58:57.303Z,3.30
2018-07-17T10:59:57.324Z,3.50
2018-07-17T11:00:57.345Z,3.10
2018-07-17T11:01:57.268Z,3.40
2018-07-17T11:02:57.250Z,3.60
2018-07-17T11:03:57.258Z,3.50
2018-07-17T11:04:57.230Z,3.50
2018-07-17T11:05:57.247Z,3.30
2018-07-17T11:06:57.941Z,3.10
2018-07-17T11:07:57.198Z,3.40
2018-07-17T11:08:57.229Z,3.30
2018-07-17T11:09:57.176Z,3.30
2018-07-17T11:10:57.165Z,3.60
2018-07-17T11:11:57.179Z,3.50
2018-07-17T11:12:57.144Z,3.40
2018-07-17T11:13:57.173Z,3.40
2018-07-17T11:14:57.129Z,3.50
2018-07-17T11:15:57.110Z,3.30
2018-07-17T11:16:57.120Z,3.60
2018-07-17T11:17:57.104Z,3.50
2018-07-17T11:18:57.080Z,3.50
2018-07-17T11:19:57.404Z,3.70
2018-07-17T11:20:57.052Z,3.50
2018-07-17T11:21:57.041Z,3.60
2018-07-17T11:22:57.048Z,3.60
2018-07-17T11:23:57.022Z,3.50
2018-07-17T11:24:57.010Z,3.20
2018-07-17T11:25:57.016Z,3.20
2018-07-17T11:26:56.990Z,3.00
2018-07-17T11:27:56.981Z,3.00
2018-07-17T11:28:57.001Z,3.00
2018-07-17T11:29:56.959Z,3.30
2018-07-17T11:30:56.955Z,3.20
2018-07-17T11:31:56.979Z,2.90
2018-07-17T11:32:56.927Z,3.40
2018-07-17T11:33:56.917Z,3.30
2018-07-17T11:34:56.922Z,3.20
2018-07-17T11:35:56.931Z,3.10
2018-07-17T11:36:56.889Z,3.20
2018-07-17T11:37:56.867Z,3.20
2018-07-17T11:38:56.854Z,3.30
2018-07-17T11:39:56.846Z,3.20
2018-07-17T11:40:56.841Z,3.20
2018-07-17T11:41:56.850Z,3.10
2018-07-17T11:42:56.814Z,3.20
2018-07-17T11:43:56.802Z,3.10
2018-07-17T11:44:56.788Z,3.10
2018-07-17T11:45:56.776Z,3.20
2018-07-17T11:46:56.778Z,3.20
2018-07-17T11:47:56.863Z,2.80
2018-07-17T11:48:56.742Z,3.00
2018-07-17T11:49:56.730Z,3.00
2018-07-17T11:50:56.722Z,3.20
2018-07-17T11:51:56.712Z,3.00
2018-07-17T11:52:56.732Z,3.10
2018-07-17T11:53:56.685Z,3.00
2018-07-17T11:54:56.676Z,3.20
2018-07-17T11:55:56.663Z,2.70
2018-07-17T11:56:56.656Z,2.90
2018-07-17T11:57:56.639Z,3.30
2018-07-17T11:58:56.690Z,2.80
2018-07-17T11:59:56.622Z,3.00
2018-07-17T12:00:56.616Z,3.10
2018-07-17T12:01:56.604Z,2.90
2018-07-17T12:02:56.619Z,3.00
2018-07-17T12:03:56.576Z,3.10
2018-07-17T12:04:56.591Z,3.20
2018-07-17T12:05:56.620Z,3.30
2018-07-17T12:06:56.546Z,3.20
2018-07-17T12:07:56.535Z,3.30
2018-07-17T12:08:56.548Z,3.40
2018-07-17T12:09:56.512Z,3.70
2018-07-17T12:10:56.517Z,3.50
2018-07-17T12:11:56.489Z,3.10
2018-07-17T12:12:56.490Z,3.20
2018-07-17T12:13:56.466Z,3.10
2018-07-17T12:14:56.481Z,3.20
2018-07-17T12:15:56.447Z,2.90
2018-07-17T12:16:57.395Z,3.30
2018-07-17T12:17:56.432Z,2.90
2018-07-17T12:18:56.411Z,3.10
2018-07-17T12:19:56.505Z,3.00
2018-07-17T12:20:56.401Z,3.40
2018-07-17T12:21:56.378Z,3.00
2018-07-17T12:22:56.382Z,3.20
2018-07-17T12:23:56.349Z,3.10
2018-07-17T12:24:56.347Z,3.00
2018-07-17T12:25:56.353Z,3.30
2018-07-17T12:26:56.332Z,3.30
2018-07-17T12:27:56.327Z,3.20
2018-07-17T12:28:56.315Z,3.20
2018-07-17T12:29:56.293Z,3.60
2018-07-17T12:30:56.282Z,3.20
2018-07-17T12:31:56.282Z,3.30
2018-07-17T12:32:56.259Z,3.30
2018-07-17T12:33:56.249Z,3.30
2018-07-17T12:34:56.327Z,3.20
2018-07-17T12:35:56.230Z,3.20
2018-07-17T12:36:56.228Z,3.20
2018-07-17T12:37:56.204Z,3.00
2018-07-17T12:38:56.194Z,2.90
2018-07-17T12:39:56.182Z,3.40
2018-07-17T12:40:56.197Z,3.60
2018-07-17T12:41:56.274Z,3.30
2018-07-17T12:42:56.148Z,3.20
2018-07-17T12:43:56.138Z,3.10
2018-07-17T12:44:56.131Z,3.00
2018-07-17T12:45:56.124Z,3.20
2018-07-17T12:46:56.263Z,2.90
2018-07-17T12:47:56.094Z,3.00
2018-07-17T12:48:56.081Z,3.20
2018-07-17T12:49:56.128Z,3.20
2018-07-17T12:50:56.063Z,3.30
2018-07-17T12:51:56.081Z,3.10
2018-07-17T12:52:56.073Z,3.40
2018-07-17T12:53:56.027Z,3.50
2018-07-17T12:54:56.021Z,3.10
2018-07-17T12:55:56.013Z,3.20
2018-07-17T12:56:55.997Z,3.20
2018-07-17T12:57:56.023Z,3.00
2018-07-17T12:58:55.998Z,2.90
2018-07-17T12:59:55.957Z,3.10
2018-07-17T13:00:55.950Z,2.90
2018-07-17T13:01:55.945Z,2.90
2018-07-17T13:02:55.930Z,2.80
2018-07-17T13:03:55.945Z,3.00
2018-07-17T13:04:55.922Z,3.10
2018-07-17T13:05:55.895Z,3.20
2018-07-17T13:06:55.888Z,3.10
2018-07-17T13:07:55.878Z,2.90
2018-07-17T13:08:55.861Z,3.10
2018-07-17T13:09:55.870Z,3.20
2018-07-17T13:10:55.864Z,3.20
2018-07-17T13:11:55.830Z,2.90
2018-07-17T13:12:55.817Z,3.10
2018-07-17T13:13:55.811Z,3.00
2018-07-17T13:14:55.827Z,3.60
2018-07-17T13:15:55.784Z,3.20
2018-07-17T13:16:55.800Z,2.90
2018-07-17T13:17:55.849Z,2.90